createdAt,value
2023-02-19T00:01:47.987Z,100.00
2023-02-19T00:04:34.777Z,100.00
2023-02-19T00:07:21.545Z,100.00
2023-02-19T00:10:08.530Z,100.00
2023-02-19T00:12:55.710Z,100.00
2023-02-19T00:15:42.134Z,100.00
2023-02-19T00:18:28.353Z,100.00
2023-02-19T00:21:16.068Z,100.00
2023-02-19T00:24:04.781Z,100.00
2023-02-19T00:26:53.881Z,100.00
2023-02-19T00:29:40.060Z,100.00
2023-02-19T00:32:29.660Z,100.00
2023-02-19T00:35:16.375Z,100.00
2023-02-19T00:38:04.509Z,100.00
2023-02-19T00:40:50.957Z,100.00
2023-02-19T00:43:37.511Z,100.00
2023-02-19T00:46:25.183Z,100.00
2023-02-19T00:49:16.905Z,100.00
2023-02-19T00:52:03.413Z,100.00
2023-02-19T00:54:52.141Z,100.00
2023-02-19T00:57:38.231Z,100.00
2023-02-19T01:00:24.786Z,100.00
2023-02-19T01:03:11.139Z,100.00
2023-02-19T01:05:58.016Z,100.00
2023-02-19T01:08:44.554Z,100.00
2023-02-19T01:11:31.233Z,100.00
2023-02-19T01:14:17.427Z,100.00
2023-02-19T01:17:04.473Z,100.00
2023-02-19T01:19:50.986Z,100.00
2023-02-19T01:22:38.154Z,100.00
2023-02-19T01:25:25.618Z,100.00
2023-02-19T01:28:12.462Z,100.00
2023-02-19T01:31:06.384Z,100.00
2023-02-19T01:34:04.706Z,100.00
2023-02-19T01:36:51.271Z,100.00
2023-02-19T01:39:38.968Z,100.00
2023-02-19T01:42:25.294Z,100.00
2023-02-19T01:45:27.396Z,100.00
2023-02-19T01:48:26.848Z,100.00
2023-02-19T01:51:16.293Z,100.00
2023-02-19T01:54:12.842Z,100.00
2023-02-19T01:57:02.834Z,100.00
2023-02-19T01:59:54.995Z,100.00
2023-02-19T02:02:43.348Z,100.00
2023-02-19T02:05:48.066Z,100.00
2023-02-19T02:08:53.529Z,100.00
2023-02-19T02:11:43.981Z,100.00
2023-02-19T02:14:31.973Z,100.00
2023-02-19T02:17:27.008Z,100.00
2023-02-19T02:20:29.165Z,100.00
2023-02-19T02:23:55.130Z,100.00
2023-02-19T02:27:33.287Z,100.00
2023-02-19T02:30:33.443Z,100.00
2023-02-19T02:33:26.792Z,100.00
2023-02-19T02:36:19.245Z,100.00
2023-02-19T02:39:08.548Z,100.00
2023-02-19T02:42:17.648Z,100.00
2023-02-19T02:45:37.037Z,100.00
2023-02-19T02:48:45.387Z,100.00
2023-02-19T02:51:39.453Z,100.00
2023-02-19T02:54:49.217Z,100.00
2023-02-19T02:57:37.256Z,100.00
2023-02-19T03:00:24.936Z,100.00
2023-02-19T03:03:11.770Z,100.00
2023-02-19T03:06:02.741Z,100.00
2023-02-19T03:09:17.688Z,100.00
2023-02-19T03:12:24.153Z,100.00
2023-02-19T03:15:31.936Z,100.00
2023-02-19T03:18:37.948Z,100.00
2023-02-19T03:21:26.199Z,100.00
2023-02-19T03:24:32.135Z,100.00
2023-02-19T03:27:20.214Z,100.00
2023-02-19T03:30:21.749Z,100.00
2023-02-19T03:33:16.477Z,100.00
2023-02-19T03:36:05.953Z,100.00
2023-02-19T03:39:20.896Z,100.00
2023-02-19T03:42:35.401Z,100.00
2023-02-19T03:45:32.458Z,100.00
2023-02-19T03:48:24.375Z,100.00
2023-02-19T03:51:28.120Z,100.00
2023-02-19T03:54:28.707Z,100.00
2023-02-19T03:57:52.109Z,100.00
2023-02-19T04:00:42.220Z,100.00
2023-02-19T04:03:39.121Z,100.00
2023-02-19T04:06:47.100Z,100.00
2023-02-19T04:09:38.274Z,100.00
2023-02-19T04:12:29.564Z,100.00
2023-02-19T04:15:27.983Z,100.00
2023-02-19T04:18:44.212Z,100.00
2023-02-19T04:21:32.687Z,100.00
2023-02-19T04:24:39.503Z,100.00
2023-02-19T04:27:26.753Z,100.00
2023-02-19T04:30:14.064Z,100.00
2023-02-19T04:33:00.761Z,100.00
2023-02-19T04:35:47.292Z,100.00
2023-02-19T04:38:33.890Z,100.00
2023-02-19T04:41:20.138Z,100.00
2023-02-19T04:44:09.771Z,100.00
2023-02-19T04:46:55.922Z,100.00
2023-02-19T04:49:42.641Z,100.00
2023-02-19T04:52:29.118Z,100.00
2023-02-19T04:55:15.759Z,100.00
2023-02-19T04:58:02.083Z,100.00
2023-02-19T05:00:52.362Z,100.00
2023-02-19T05:03:38.662Z,100.00
2023-02-19T05:06:25.238Z,100.00
2023-02-19T05:09:11.846Z,100.00
2023-02-19T05:11:58.249Z,100.00
2023-02-19T05:14:47.115Z,100.00
2023-02-19T05:17:37.323Z,100.00
2023-02-19T05:20:23.342Z,100.00
2023-02-19T05:23:09.886Z,100.00
2023-02-19T05:25:55.973Z,100.00
2023-02-19T05:28:43.169Z,100.00
2023-02-19T05:31:29.509Z,100.00
2023-02-19T05:34:16.320Z,100.00
2023-02-19T05:37:02.427Z,100.00
2023-02-19T05:39:52.231Z,100.00
2023-02-19T05:42:38.573Z,100.00
2023-02-19T05:45:25.231Z,100.00
2023-02-19T05:48:12.927Z,100.00
2023-02-19T05:51:04.553Z,100.00
2023-02-19T05:53:51.419Z,100.00
2023-02-19T05:56:42.445Z,100.00
2023-02-19T05:59:29.339Z,100.00
2023-02-19T06:02:16.237Z,100.00
2023-02-19T06:05:02.754Z,100.00
2023-02-19T06:07:50.628Z,100.00
2023-02-19T06:10:40.269Z,100.00
2023-02-19T06:13:27.349Z,100.00
2023-02-19T06:16:13.739Z,100.00
2023-02-19T06:19:04.302Z,100.00
2023-02-19T06:21:51.111Z,100.00
2023-02-19T06:24:37.876Z,100.00
2023-02-19T06:27:24.307Z,100.00
2023-02-19T06:30:11.925Z,100.00
2023-02-19T06:32:58.495Z,100.00
2023-02-19T06:35:44.856Z,100.00
2023-02-19T06:38:31.769Z,100.00
2023-02-19T06:41:18.249Z,100.00
2023-02-19T06:44:05.088Z,100.00
2023-02-19T06:46:55.219Z,100.00
2023-02-19T06:49:41.645Z,100.00
2023-02-19T06:52:28.193Z,100.00
2023-02-19T06:55:17.068Z,100.00
2023-02-19T06:58:04.652Z,100.00
2023-02-19T07:00:53.961Z,100.00
2023-02-19T07:03:40.651Z,100.00
2023-02-19T07:06:27.370Z,100.00
2023-02-19T07:09:14.008Z,100.00
2023-02-19T07:12:00.376Z,100.00
2023-02-19T07:14:49.685Z,100.00
2023-02-19T07:17:36.427Z,100.00
2023-02-19T07:20:23.429Z,100.00
2023-02-19T07:23:10.008Z,100.00
2023-02-19T07:25:56.892Z,100.00
2023-02-19T07:28:44.667Z,100.00
2023-02-19T07:31:31.409Z,100.00
2023-02-19T07:34:17.738Z,100.00
2023-02-19T07:37:09.265Z,100.00
2023-02-19T07:39:55.620Z,100.00
2023-02-19T07:42:42.478Z,100.00
2023-02-19T07:45:28.572Z,100.00
2023-02-19T07:48:15.837Z,100.00
2023-02-19T07:51:03.974Z,100.00
2023-02-19T07:53:51.030Z,100.00
2023-02-19T07:56:37.494Z,100.00
2023-02-19T07:59:24.342Z,100.00
2023-02-19T08:02:36.709Z,100.00
2023-02-19T08:05:23.671Z,100.00
2023-02-19T08:08:12.537Z,100.00
2023-02-19T08:11:22.416Z,100.00
2023-02-19T08:14:22.026Z,100.00
2023-02-19T08:17:12.224Z,100.00
2023-02-19T08:19:58.743Z,100.00
2023-02-19T08:22:45.511Z,100.00
2023-02-19T08:25:34.549Z,100.00
2023-02-19T08:28:21.160Z,100.00
2023-02-19T08:31:08.378Z,100.00
2023-02-19T08:33:55.222Z,100.00
2023-02-19T08:36:42.700Z,100.00
2023-02-19T08:39:29.167Z,100.00
2023-02-19T08:42:15.547Z,100.00
2023-02-19T08:45:02.496Z,100.00
2023-02-19T08:47:48.883Z,100.00
2023-02-19T08:50:36.316Z,100.00
2023-02-19T08:53:23.129Z,100.00
2023-02-19T08:56:12.412Z,100.00
2023-02-19T08:59:01.349Z,100.00
2023-02-19T09:01:48.139Z,100.00
2023-02-19T09:04:34.310Z,100.00
2023-02-19T09:07:21.175Z,100.00
2023-02-19T09:10:07.968Z,100.00
2023-02-19T09:12:54.473Z,100.00
2023-02-19T09:15:40.752Z,100.00
2023-02-19T09:18:27.438Z,100.00
2023-02-19T09:21:14.315Z,100.00
2023-02-19T09:24:01.133Z,100.00
2023-02-19T09:26:52.066Z,100.00
2023-02-19T09:29:39.044Z,100.00
2023-02-19T09:32:25.751Z,100.00
2023-02-19T09:35:12.792Z,100.00
2023-02-19T09:38:01.164Z,100.00
2023-02-19T09:40:50.876Z,100.00
2023-02-19T09:43:38.392Z,100.00
2023-02-19T09:46:31.713Z,100.00
2023-02-19T09:49:39.167Z,100.00
2023-02-19T09:52:33.286Z,100.00
2023-02-19T09:55:25.822Z,100.00
2023-02-19T09:58:30.151Z,100.00
2023-02-19T10:01:16.481Z,99.48
2023-02-19T10:04:04.302Z,100.00
2023-02-19T10:06:59.016Z,99.98
2023-02-19T10:09:54.423Z,99.87
2023-02-19T10:12:51.952Z,99.29
2023-02-19T10:15:44.519Z,98.52
2023-02-19T10:18:46.684Z,97.90
2023-02-19T10:21:33.377Z,98.03
2023-02-19T10:24:27.923Z,97.24
2023-02-19T10:27:15.627Z,97.36
2023-02-19T10:30:02.426Z,96.75
2023-02-19T10:33:14.085Z,96.47
2023-02-19T10:36:04.160Z,96.91
2023-02-19T10:38:50.630Z,96.01
2023-02-19T10:41:44.065Z,95.72
2023-02-19T10:44:36.980Z,95.62
2023-02-19T10:47:24.793Z,94.21
2023-02-19T10:50:26.971Z,94.37
2023-02-19T10:53:23.756Z,93.81
2023-02-19T10:56:27.016Z,94.25
2023-02-19T10:59:28.351Z,92.78
2023-02-19T11:02:19.947Z,93.29
2023-02-19T11:05:09.413Z,94.06
2023-02-19T11:07:57.355Z,92.54
2023-02-19T11:10:48.689Z,93.50
2023-02-19T11:13:38.146Z,93.01
2023-02-19T11:16:36.913Z,92.62
2023-02-19T11:19:46.073Z,92.66
2023-02-19T11:22:50.479Z,92.18
2023-02-19T11:25:55.387Z,90.91
2023-02-19T11:28:47.118Z,90.43
2023-02-19T11:31:36.762Z,90.23
2023-02-19T11:34:30.511Z,89.72
2023-02-19T11:37:22.571Z,89.97
2023-02-19T11:40:12.776Z,89.25
2023-02-19T11:43:44.283Z,89.27
2023-02-19T11:46:55.104Z,87.97
2023-02-19T11:53:32.624Z,87.35
2023-02-19T11:56:37.338Z,87.65
2023-02-19T11:59:39.379Z,87.95
2023-02-19T12:02:42.042Z,86.55
2023-02-19T12:06:13.753Z,86.73
2023-02-19T12:09:36.310Z,83.87
2023-02-19T12:12:26.169Z,85.39
2023-02-19T12:15:20.386Z,85.16
2023-02-19T12:18:22.663Z,84.21
2023-02-19T12:21:27.184Z,84.74
2023-02-19T12:24:41.913Z,84.94
2023-02-19T12:27:37.932Z,84.77
2023-02-19T12:30:53.691Z,84.87
2023-02-19T12:33:46.732Z,84.61
2023-02-19T12:37:15.010Z,83.32
2023-02-19T12:40:30.364Z,83.97
2023-02-19T12:43:26.273Z,83.82
2023-02-19T12:46:21.760Z,83.34
2023-02-19T12:49:14.117Z,82.51
2023-02-19T12:52:43.293Z,82.31
2023-02-19T12:55:39.635Z,82.50
2023-02-19T12:58:38.491Z,83.12
2023-02-19T13:01:48.684Z,83.72
2023-02-19T13:04:49.707Z,83.52
2023-02-19T13:07:58.291Z,82.73
2023-02-19T13:10:59.556Z,83.02
2023-02-19T13:14:11.988Z,82.92
2023-02-19T13:17:11.273Z,81.93
2023-02-19T13:20:18.339Z,81.60
2023-02-19T13:23:42.708Z,81.33
2023-02-19T13:26:42.413Z,81.43
2023-02-19T13:29:53.286Z,80.56
2023-02-19T13:32:46.483Z,81.58
2023-02-19T13:35:42.064Z,80.53
2023-02-19T13:38:53.015Z,80.11
2023-02-19T13:41:55.094Z,79.80
2023-02-19T13:44:57.715Z,80.08
2023-02-19T13:47:56.968Z,78.05
2023-02-19T13:50:46.540Z,79.06
2023-02-19T13:53:47.910Z,79.65
2023-02-19T13:56:38.417Z,79.14
2023-02-19T13:59:39.359Z,79.22
2023-02-19T14:02:35.479Z,79.34
2023-02-19T14:06:00.124Z,79.13
2023-02-19T14:08:50.261Z,79.11
2023-02-19T14:11:44.146Z,78.58
2023-02-19T14:14:41.183Z,79.35
2023-02-19T14:17:44.197Z,79.16
2023-02-19T14:20:45.316Z,78.64
2023-02-19T14:23:36.935Z,79.02
2023-02-19T14:26:32.352Z,78.27
2023-02-19T14:29:20.121Z,78.75
2023-02-19T14:32:13.614Z,78.54
2023-02-19T14:35:02.452Z,78.76
2023-02-19T14:37:51.464Z,79.24
2023-02-19T14:40:43.770Z,78.72
2023-02-19T14:43:31.645Z,79.26
2023-02-19T14:46:21.543Z,77.96
2023-02-19T14:49:40.252Z,78.50
2023-02-19T14:52:41.226Z,78.05
2023-02-19T14:55:35.673Z,77.13
2023-02-19T14:58:33.015Z,77.72
2023-02-19T15:01:29.047Z,77.50
2023-02-19T15:04:24.753Z,77.56
2023-02-19T15:07:15.974Z,77.88
2023-02-19T15:10:05.550Z,76.56
2023-02-19T15:12:53.837Z,77.03
2023-02-19T15:15:44.634Z,76.56
2023-02-19T15:18:35.768Z,77.34
2023-02-19T15:21:26.431Z,76.80
2023-02-19T15:24:15.060Z,76.78
2023-02-19T15:27:01.927Z,76.86
2023-02-19T15:29:53.207Z,77.38
2023-02-19T15:32:40.195Z,77.50
2023-02-19T15:35:28.179Z,77.70
2023-02-19T15:38:15.264Z,78.02
2023-02-19T15:41:01.784Z,78.13
2023-02-19T15:44:11.586Z,77.99
2023-02-19T15:47:00.420Z,77.72
2023-02-19T15:49:57.319Z,78.29
2023-02-19T15:52:52.748Z,78.34
2023-02-19T15:55:41.396Z,78.36
2023-02-19T15:58:36.440Z,78.16
2023-02-19T16:01:26.048Z,78.96
2023-02-19T16:04:17.646Z,78.40
2023-02-19T16:07:04.020Z,79.13
2023-02-19T16:10:25.057Z,79.03
2023-02-19T16:13:12.070Z,78.95
2023-02-19T16:16:24.473Z,78.96
2023-02-19T16:19:11.602Z,78.76
2023-02-19T16:21:58.791Z,79.08
2023-02-19T16:24:47.966Z,79.07
2023-02-19T16:27:40.374Z,78.46
2023-02-19T16:30:34.203Z,79.14
2023-02-19T16:33:48.381Z,78.68
2023-02-19T16:36:41.377Z,79.21
2023-02-19T16:39:28.266Z,79.17
2023-02-19T16:42:15.180Z,79.10
2023-02-19T16:45:02.126Z,79.50
2023-02-19T16:47:51.150Z,79.79
2023-02-19T16:50:43.554Z,78.75
2023-02-19T16:53:30.681Z,79.37
2023-02-19T16:56:21.306Z,79.77
2023-02-19T16:59:08.165Z,80.78
2023-02-19T17:01:54.930Z,80.59
2023-02-19T17:04:41.284Z,80.20
2023-02-19T17:07:27.901Z,80.81
2023-02-19T17:10:17.882Z,80.44
2023-02-19T17:13:04.615Z,81.15
2023-02-19T17:15:51.570Z,81.09
2023-02-19T17:18:38.080Z,81.00
2023-02-19T17:21:30.924Z,81.24
2023-02-19T17:24:17.571Z,81.34
2023-02-19T17:27:04.189Z,81.16
2023-02-19T17:29:50.825Z,82.01
2023-02-19T17:32:37.393Z,80.88
2023-02-19T17:35:26.962Z,80.90
2023-02-19T17:38:14.258Z,81.65
2023-02-19T17:41:00.983Z,82.04
2023-02-19T17:43:48.320Z,81.44
2023-02-19T17:46:35.920Z,81.47
2023-02-19T17:49:24.360Z,80.97
2023-02-19T17:52:10.924Z,81.05
2023-02-19T17:54:57.419Z,81.47
2023-02-19T17:57:45.075Z,81.17
2023-02-19T18:00:32.381Z,80.75
2023-02-19T18:03:19.410Z,81.71
2023-02-19T18:06:06.925Z,80.60
2023-02-19T18:08:53.794Z,81.12
2023-02-19T18:11:46.476Z,81.34
2023-02-19T18:14:35.712Z,81.48
2023-02-19T18:17:25.949Z,81.03
2023-02-19T18:20:17.584Z,81.58
2023-02-19T18:23:07.947Z,81.11
2023-02-19T18:25:54.004Z,81.14
2023-02-19T18:28:41.131Z,80.98
2023-02-19T18:31:27.949Z,81.38
2023-02-19T18:34:20.677Z,82.71
2023-02-19T18:37:07.133Z,82.19
2023-02-19T18:39:53.943Z,82.22
2023-02-19T18:42:41.065Z,82.04
2023-02-19T18:45:29.819Z,82.86
2023-02-19T18:48:16.129Z,82.83
2023-02-19T18:51:02.542Z,84.02
2023-02-19T18:53:49.225Z,84.15
2023-02-19T18:56:43.658Z,83.21
2023-02-19T18:59:29.832Z,83.52
2023-02-19T19:02:16.928Z,83.98
2023-02-19T19:05:03.712Z,84.32
2023-02-19T19:08:01.983Z,84.56
2023-02-19T19:10:48.341Z,85.69
2023-02-19T19:13:35.176Z,85.59
2023-02-19T19:16:25.966Z,85.46
2023-02-19T19:19:13.345Z,86.60
2023-02-19T19:21:59.771Z,85.85
2023-02-19T19:24:46.479Z,85.16
2023-02-19T19:27:35.986Z,86.63
2023-02-19T19:30:25.744Z,86.67
2023-02-19T19:33:17.851Z,86.13
2023-02-19T19:36:11.102Z,86.70
2023-02-19T19:38:57.345Z,87.21
2023-02-19T19:41:43.961Z,87.32
2023-02-19T19:44:30.670Z,87.31
2023-02-19T19:47:18.222Z,87.83
2023-02-19T19:50:06.681Z,87.72
2023-02-19T19:52:53.451Z,88.25
2023-02-19T19:55:39.918Z,88.75
2023-02-19T19:58:30.059Z,88.16
2023-02-19T20:01:21.106Z,88.62
2023-02-19T20:04:10.308Z,89.01
2023-02-19T20:06:58.645Z,89.35
2023-02-19T20:09:50.931Z,88.78
2023-02-19T20:12:39.638Z,88.81
2023-02-19T20:15:26.770Z,88.99
2023-02-19T20:18:18.622Z,89.44
2023-02-19T20:21:07.631Z,88.74
2023-02-19T20:23:53.980Z,89.83
2023-02-19T20:26:40.701Z,89.33
2023-02-19T20:29:33.159Z,89.13
2023-02-19T20:32:19.818Z,89.02
2023-02-19T20:35:08.205Z,89.56
2023-02-19T20:37:55.705Z,89.66
2023-02-19T20:40:42.193Z,89.25
2023-02-19T20:43:28.873Z,89.57
2023-02-19T20:46:15.488Z,89.23
2023-02-19T20:49:02.178Z,90.34
2023-02-19T20:52:07.551Z,90.22
2023-02-19T20:54:55.932Z,90.24
2023-02-19T20:57:44.856Z,90.40
2023-02-19T21:00:31.229Z,90.03
2023-02-19T21:03:17.599Z,90.71
2023-02-19T21:06:07.082Z,90.51
2023-02-19T21:08:53.169Z,89.54
2023-02-19T21:11:42.852Z,90.48
2023-02-19T21:14:29.202Z,89.89
2023-02-19T21:17:16.129Z,90.71
2023-02-19T21:20:05.670Z,90.01
2023-02-19T21:22:52.665Z,90.62
2023-02-19T21:25:39.412Z,90.95
2023-02-19T21:28:25.970Z,91.86
2023-02-19T21:31:12.448Z,91.43
2023-02-19T21:34:04.233Z,91.16
2023-02-19T21:36:51.252Z,91.41
2023-02-19T21:39:39.042Z,90.82
2023-02-19T21:42:25.820Z,91.11
2023-02-19T21:45:12.485Z,92.05
2023-02-19T21:47:59.277Z,91.21
2023-02-19T21:50:45.903Z,91.45
2023-02-19T21:53:33.822Z,91.42
2023-02-19T21:56:31.576Z,91.50
2023-02-19T21:59:18.836Z,92.05
2023-02-19T22:02:05.144Z,91.79
2023-02-19T22:04:55.438Z,92.10
2023-02-19T22:07:42.247Z,91.41
2023-02-19T22:10:29.949Z,91.79
2023-02-19T22:13:18.839Z,91.69
2023-02-19T22:16:05.552Z,92.65
2023-02-19T22:18:57.806Z,92.93
2023-02-19T22:21:46.819Z,91.63
2023-02-19T22:24:33.596Z,91.92
2023-02-19T22:27:21.813Z,92.40
2023-02-19T22:31:02.001Z,91.82
2023-02-19T22:33:48.676Z,91.82
2023-02-19T22:36:39.104Z,91.04
2023-02-19T22:39:28.029Z,91.71
2023-02-19T22:42:21.580Z,91.70
2023-02-19T22:45:29.711Z,91.92
2023-02-19T22:48:29.680Z,91.35
2023-02-19T22:51:25.214Z,91.19
2023-02-19T22:54:17.079Z,91.22
2023-02-19T22:57:10.698Z,91.83
2023-02-19T23:00:00.821Z,91.64
2023-02-19T23:02:48.861Z,91.14
2023-02-19T23:05:35.564Z,91.30
2023-02-19T23:08:21.827Z,91.63
2023-02-19T23:11:09.449Z,91.40
2023-02-19T23:13:55.956Z,91.88
2023-02-19T23:16:43.144Z,91.90
2023-02-19T23:19:29.726Z,91.87
2023-02-19T23:22:16.551Z,91.97
2023-02-19T23:25:06.861Z,91.69
2023-02-19T23:27:53.717Z,92.19
2023-02-19T23:30:39.962Z,91.88
2023-02-19T23:33:26.923Z,91.50
2023-02-19T23:36:13.976Z,92.19
2023-02-19T23:39:03.870Z,92.53
2023-02-19T23:41:54.528Z,93.21
2023-02-19T23:44:41.227Z,91.98
2023-02-19T23:47:30.652Z,92.45
2023-02-19T23:50:17.517Z,92.43
2023-02-19T23:53:04.252Z,92.35
2023-02-19T23:55:51.795Z,92.52
2023-02-19T23:58:38.206Z,92.63
